Time;durP1;ratioP1;P1;durP2;ratioP2;P2;SDS_P1;SDS_P2;PMS_P1;PMS_P2;Temp;Humidity;BMP_temperature;BMP_pressure;BME280_temperature;BME280_humidity;BME280_pressure;Samples;Min_cycle;Max_cycle;Signal;HPM_P1;HPM_P2
2021/01/24 00:01:37;;;;;;;15.98;4.78;;;;;;;;;;4980472;28;20125;-54
2021/01/24 00:04:03;;;;;;;16.38;6.57;;;;;;;;;;4981329;28;20149;-56
2021/01/24 00:06:29;;;;;;;10.07;4.55;;;;;;;;;;4973033;28;20045;-56
2021/01/24 00:08:57;;;;;;;8.70;3.85;;;;;;;;;;4980266;28;20042;-55
2021/01/24 00:11:23;;;;;;;10.93;4.47;;;;;;;;;;4979599;28;20826;-55
2021/01/24 00:13:49;;;;;;;12.65;5.05;;;;;;;;;;4981239;28;20125;-55
2021/01/24 00:16:15;;;;;;;9.65;4.50;;;;;;;;;;4982675;28;20054;-56
2021/01/24 00:18:41;;;;;;;14.75;5.40;;;;;;;;;;4979762;28;20038;-54
2021/01/24 00:21:07;;;;;;;9.82;4.72;;;;;;;;;;4980749;28;20048;-54
2021/01/24 00:23:33;;;;;;;8.75;4.50;;;;;;;;;;4980315;28;20042;-55
2021/01/24 00:25:59;;;;;;;10.93;4.70;;;;;;;;;;4989976;28;20075;-56
2021/01/24 00:28:26;;;;;;;9.25;4.28;;;;;;;;;;4989950;28;20140;-54
2021/01/24 00:30:54;;;;;;;8.88;2.75;;;;;;;;;;4989751;28;20403;-55
2021/01/24 00:33:20;;;;;;;29.70;4.72;;;;;;;;;;4991481;28;20038;-56
2021/01/24 00:35:46;;;;;;;6.47;3.22;;;;;;;;;;4990809;28;20141;-56
2021/01/24 00:38:12;;;;;;;7.53;3.40;;;;;;;;;;4990951;28;20112;-54
2021/01/24 00:40:39;;;;;;;11.77;5.07;;;;;;;;;;4990328;28;20263;-54
2021/01/24 00:43:05;;;;;;;5.97;3.30;;;;;;;;;;4984533;28;20045;-52
2021/01/24 00:45:31;;;;;;;12.75;4.63;;;;;;;;;;4990837;28;20073;-56
2021/01/24 00:47:57;;;;;;;7.10;4.05;;;;;;;;;;4982495;28;20061;-55
2021/01/24 00:50:23;;;;;;;16.05;4.60;;;;;;;;;;4989271;28;20043;-52
2021/01/24 00:52:51;;;;;;;9.48;3.70;;;;;;;;;;4990642;28;20038;-55
2021/01/24 00:55:17;;;;;;;14.35;4.00;;;;;;;;;;4992330;28;20046;-55
2021/01/24 00:57:46;;;;;;;34.47;5.65;;;;;;;;;;4992229;28;21631;-55
2021/01/24 01:00:18;;;;;;;8.32;3.65;;;;;;;;;;4993072;28;20042;-54
2021/01/24 01:02:44;;;;;;;31.60;7.20;;;;;;;;;;4994159;28;20042;-56
2021/01/24 01:05:11;;;;;;;51.03;6.10;;;;;;;;;;4994679;28;20096;-56
2021/01/24 01:07:36;;;;;;;55.25;7.55;;;;;;;;;;4964640;28;20533;-53
2021/01/24 01:10:03;;;;;;;48.55;5.20;;;;;;;;;;4993470;28;21363;-55
2021/01/24 01:12:29;;;;;;;72.40;5.63;;;;;;;;;;4992063;28;20034;-57
2021/01/24 01:14:55;;;;;;;17.55;4.72;;;;;;;;;;4995527;28;20081;-54
2021/01/24 01:17:21;;;;;;;26.08;4.20;;;;;;;;;;4993984;28;20103;-55
2021/01/24 01:19:47;;;;;;;54.90;7.05;;;;;;;;;;4995361;28;20132;-58
2021/01/24 01:22:13;;;;;;;38.78;5.72;;;;;;;;;;4994098;28;20081;-51
2021/01/24 01:24:38;;;;;;;55.88;7.40;;;;;;;;;;4994009;28;20127;-56
2021/01/24 01:27:04;;;;;;;108.03;8.10;;;;;;;;;;4993230;28;20042;-57
2021/01/24 01:29:30;;;;;;;63.08;6.10;;;;;;;;;;4991516;28;20046;-57
2021/01/24 01:31:56;;;;;;;25.73;5.25;;;;;;;;;;4994824;28;20072;-55
2021/01/24 01:34:22;;;;;;;29.35;5.47;;;;;;;;;;4993019;28;20060;-56
2021/01/24 01:36:51;;;;;;;28.48;4.07;;;;;;;;;;4995635;28;20038;-54
2021/01/24 01:39:17;;;;;;;19.40;5.88;;;;;;;;;;4995745;28;20654;-57
2021/01/24 01:41:43;;;;;;;33.25;4.90;;;;;;;;;;4993313;28;20132;-54
2021/01/24 01:44:10;;;;;;;37.35;4.90;;;;;;;;;;4994812;28;20070;-54
2021/01/24 01:46:38;;;;;;;18.92;4.05;;;;;;;;;;4993970;28;20495;-54
2021/01/24 01:49:03;;;;;;;16.30;4.10;;;;;;;;;;4994145;28;20050;-55
2021/01/24 01:51:29;;;;;;;63.30;5.45;;;;;;;;;;4994807;28;20517;-55
2021/01/24 01:53:58;;;;;;;64.32;4.57;;;;;;;;;;4995966;28;20038;-53
2021/01/24 01:56:24;;;;;;;31.42;3.95;;;;;;;;;;4993040;28;20050;-56
2021/01/24 01:58:50;;;;;;;34.70;4.35;;;;;;;;;;4994300;28;20057;-57
2021/01/24 02:01:25;;;;;;;39.53;6.35;;;;;;;;;;4995219;28;20081;-54
2021/01/24 02:03:57;;;;;;;34.97;4.40;;;;;;;;;;4983711;28;20395;-52
2021/01/24 02:06:44;;;;;;;40.40;4.60;;;;;;;;;;4986303;28;20045;-56
2021/01/24 02:09:16;;;;;;;30.50;3.20;;;;;;;;;;4985373;28;20065;-54
2021/01/24 02:12:08;;;;;;;12.60;3.83;;;;;;;;;;4991538;28;20046;-54
2021/01/24 02:14:55;;;;;;;19.17;4.20;;;;;;;;;;4986333;28;20530;-56
2021/01/24 02:17:22;;;;;;;19.55;2.78;;;;;;;;;;4992294;28;20120;-55
2021/01/24 02:19:55;;;;;;;7.63;3.05;;;;;;;;;;4994454;28;20046;-55
2021/01/24 02:22:22;;;;;;;7.68;3.13;;;;;;;;;;4991191;28;20062;-56
2021/01/24 02:24:51;;;;;;;16.92;3.38;;;;;;;;;;4983072;28;20065;-53
2021/01/24 02:27:37;;;;;;;49.30;4.65;;;;;;;;;;4991856;28;20553;-54
2021/01/24 02:30:23;;;;;;;34.45;4.45;;;;;;;;;;4964258;28;20509;-55
2021/01/24 02:32:53;;;;;;;7.30;3.22;;;;;;;;;;4981719;28;20408;-53
2021/01/24 02:35:19;;;;;;;8.75;3.00;;;;;;;;;;4990322;28;20068;-53
2021/01/24 02:37:46;;;;;;;10.88;2.95;;;;;;;;;;4993887;28;20646;-53
2021/01/24 02:40:12;;;;;;;9.38;2.67;;;;;;;;;;4975730;28;20045;-52
2021/01/24 02:42:39;;;;;;;6.38;2.38;;;;;;;;;;4992669;28;20042;-52
2021/01/24 02:45:06;;;;;;;4.60;1.77;;;;;;;;;;4993829;28;20149;-52
2021/01/24 02:47:32;;;;;;;8.60;1.85;;;;;;;;;;4973249;28;20038;-52
2021/01/24 02:49:59;;;;;;;9.13;3.17;;;;;;;;;;4993991;28;20057;-52
2021/01/24 02:52:26;;;;;;;7.85;2.88;;;;;;;;;;4968397;28;20045;-55
2021/01/24 02:54:52;;;;;;;9.65;2.63;;;;;;;;;;4992637;28;20049;-54
2021/01/24 02:57:18;;;;;;;8.55;2.53;;;;;;;;;;4991291;28;20041;-56
2021/01/24 02:59:45;;;;;;;6.30;2.40;;;;;;;;;;4992990;28;20069;-52
2021/01/24 03:02:11;;;;;;;7.40;3.00;;;;;;;;;;4993870;28;20046;-54
2021/01/24 03:04:37;;;;;;;7.63;2.65;;;;;;;;;;4974937;28;20141;-54
2021/01/24 03:07:04;;;;;;;6.45;3.03;;;;;;;;;;4993628;28;20856;-56
2021/01/24 03:09:30;;;;;;;5.97;2.42;;;;;;;;;;4992168;28;20081;-54
2021/01/24 03:11:58;;;;;;;5.22;2.33;;;;;;;;;;4992560;28;20073;-56
2021/01/24 03:14:25;;;;;;;6.78;2.38;;;;;;;;;;4993784;28;22010;-53
2021/01/24 03:16:58;;;;;;;6.35;2.60;;;;;;;;;;4990767;28;20714;-55
2021/01/24 03:19:25;;;;;;;6.38;2.50;;;;;;;;;;4969891;28;20061;-57
2021/01/24 03:21:52;;;;;;;4.90;2.05;;;;;;;;;;4991744;28;20034;-53
2021/01/24 03:24:20;;;;;;;5.57;2.30;;;;;;;;;;4979452;28;20113;-55
2021/01/24 03:26:46;;;;;;;12.02;2.80;;;;;;;;;;4983733;28;20601;-54
2021/01/24 03:29:15;;;;;;;4.18;1.90;;;;;;;;;;4993752;28;20053;-55
2021/01/24 03:31:45;;;;;;;13.00;2.55;;;;;;;;;;4989774;28;20100;-56
2021/01/24 03:34:21;;;;;;;11.38;4.07;;;;;;;;;;4992383;28;20049;-52
2021/01/24 03:36:49;;;;;;;6.20;2.28;;;;;;;;;;4989460;28;20171;-54
2021/01/24 03:39:16;;;;;;;20.52;2.92;;;;;;;;;;4991443;28;20077;-52
2021/01/24 03:41:42;;;;;;;10.18;2.67;;;;;;;;;;4990205;28;20034;-52
2021/01/24 03:44:08;;;;;;;11.57;3.45;;;;;;;;;;4991555;28;20045;-55
2021/01/24 03:46:35;;;;;;;11.23;3.30;;;;;;;;;;4991896;28;20050;-54
2021/01/24 03:49:01;;;;;;;12.23;3.80;;;;;;;;;;4990882;28;20054;-54
2021/01/24 03:51:27;;;;;;;7.93;3.13;;;;;;;;;;4992133;28;20435;-53
2021/01/24 03:53:53;;;;;;;16.23;4.55;;;;;;;;;;4993207;28;20054;-54
2021/01/24 03:56:19;;;;;;;11.38;4.57;;;;;;;;;;4989928;28;20125;-56
2021/01/24 03:58:45;;;;;;;10.23;3.00;;;;;;;;;;4989765;28;20426;-54
2021/01/24 04:01:11;;;;;;;13.60;3.70;;;;;;;;;;4989660;28;20045;-52
2021/01/24 04:03:37;;;;;;;8.52;3.17;;;;;;;;;;4991006;28;20064;-53
2021/01/24 04:06:03;;;;;;;8.65;4.18;;;;;;;;;;4977693;28;20069;-54
2021/01/24 04:08:29;;;;;;;14.77;3.88;;;;;;;;;;4992803;28;20050;-55
2021/01/24 04:10:55;;;;;;;23.92;3.67;;;;;;;;;;4991791;28;20063;-54
2021/01/24 04:13:22;;;;;;;16.50;3.55;;;;;;;;;;4991735;28;20033;-53
2021/01/24 04:15:47;;;;;;;13.35;4.32;;;;;;;;;;4991589;28;20121;-55
2021/01/24 04:18:13;;;;;;;11.35;3.80;;;;;;;;;;4992043;28;20103;-55
2021/01/24 04:20:39;;;;;;;9.30;3.53;;;;;;;;;;4988065;28;20049;-55
2021/01/24 04:23:05;;;;;;;9.10;3.25;;;;;;;;;;4993554;28;20515;-54
2021/01/24 04:25:31;;;;;;;8.20;3.00;;;;;;;;;;4991465;28;20048;-56
2021/01/24 04:27:57;;;;;;;14.05;3.42;;;;;;;;;;4992505;28;20045;-55
2021/01/24 04:30:23;;;;;;;8.15;2.95;;;;;;;;;;4989588;28;20045;-55
2021/01/24 04:32:49;;;;;;;6.05;2.53;;;;;;;;;;4976464;28;20126;-56
2021/01/24 04:35:15;;;;;;;9.15;3.67;;;;;;;;;;4995219;28;20037;-53
2021/01/24 04:37:41;;;;;;;6.03;2.85;;;;;;;;;;4981646;28;20319;-53
2021/01/24 04:40:07;;;;;;;9.50;2.92;;;;;;;;;;4990104;28;20379;-56
2021/01/24 04:42:33;;;;;;;7.50;3.03;;;;;;;;;;4995758;28;20042;-55
2021/01/24 04:44:59;;;;;;;8.30;2.85;;;;;;;;;;4997119;28;20038;-53
2021/01/24 04:47:25;;;;;;;9.30;3.25;;;;;;;;;;4995476;28;20049;-54
2021/01/24 04:49:51;;;;;;;9.18;2.83;;;;;;;;;;4993066;28;20099;-52
2021/01/24 04:52:17;;;;;;;7.47;2.80;;;;;;;;;;4995873;28;20046;-54
2021/01/24 04:54:43;;;;;;;7.03;2.65;;;;;;;;;;4994158;28;20117;-54
2021/01/24 04:57:09;;;;;;;5.15;2.00;;;;;;;;;;4996389;28;20525;-53
2021/01/24 04:59:35;;;;;;;13.23;3.05;;;;;;;;;;4995606;28;20041;-54
2021/01/24 05:02:02;;;;;;;6.28;2.60;;;;;;;;;;4995679;28;20177;-55
2021/01/24 05:04:28;;;;;;;8.65;3.03;;;;;;;;;;4994900;28;20046;-52
2021/01/24 05:06:54;;;;;;;7.03;2.65;;;;;;;;;;4995140;28;20049;-54
2021/01/24 05:09:23;;;;;;;8.75;4.15;;;;;;;;;;4994797;28;20072;-53
2021/01/24 05:11:50;;;;;;;10.95;2.55;;;;;;;;;;4993142;28;20042;-52
2021/01/24 05:14:16;;;;;;;7.30;2.20;;;;;;;;;;4995800;28;20046;-55
2021/01/24 05:16:43;;;;;;;10.10;3.13;;;;;;;;;;4997669;28;20050;-55
2021/01/24 05:19:09;;;;;;;6.93;2.53;;;;;;;;;;4979034;28;20041;-53
2021/01/24 05:21:36;;;;;;;10.10;2.63;;;;;;;;;;4995111;28;20050;-52
2021/01/24 05:24:03;;;;;;;8.77;3.40;;;;;;;;;;4993511;28;20065;-54
2021/01/24 05:26:29;;;;;;;7.88;2.72;;;;;;;;;;4995405;28;20053;-52
2021/01/24 05:28:55;;;;;;;6.60;2.50;;;;;;;;;;4993158;28;20061;-54
2021/01/24 05:31:21;;;;;;;15.93;3.70;;;;;;;;;;4994945;28;20038;-54
2021/01/24 05:33:47;;;;;;;16.02;3.05;;;;;;;;;;4993915;28;20038;-52
2021/01/24 05:36:13;;;;;;;8.43;2.78;;;;;;;;;;4995048;28;20050;-53
2021/01/24 05:38:39;;;;;;;6.63;2.20;;;;;;;;;;4993475;28;20042;-55
2021/01/24 05:41:06;;;;;;;7.40;3.00;;;;;;;;;;4995666;28;20438;-52
2021/01/24 05:43:39;;;;;;;5.38;2.20;;;;;;;;;;4993070;28;20562;-52
2021/01/24 05:46:05;;;;;;;20.38;2.85;;;;;;;;;;4995298;28;20752;-52
2021/01/24 05:48:32;;;;;;;40.40;3.35;;;;;;;;;;4993073;28;20557;-52
2021/01/24 05:51:01;;;;;;;27.58;3.40;;;;;;;;;;4992340;28;20034;-52
2021/01/24 05:53:27;;;;;;;8.13;2.28;;;;;;;;;;4994204;28;20141;-51
2021/01/24 05:55:53;;;;;;;6.95;2.15;;;;;;;;;;4992573;28;20418;-54
2021/01/24 05:58:23;;;;;;;7.13;2.40;;;;;;;;;;4992536;28;20041;-53
2021/01/24 06:00:50;;;;;;;7.10;2.00;;;;;;;;;;4994069;28;20088;-55
2021/01/24 06:03:17;;;;;;;5.53;1.67;;;;;;;;;;4993251;28;20030;-54
2021/01/24 06:05:43;;;;;;;9.63;2.15;;;;;;;;;;4994775;28;20446;-56
2021/01/24 06:08:10;;;;;;;6.32;2.40;;;;;;;;;;4994030;28;20067;-54
2021/01/24 06:10:36;;;;;;;6.80;2.22;;;;;;;;;;4991519;28;20042;-53
2021/01/24 06:13:03;;;;;;;4.30;1.80;;;;;;;;;;4992669;28;20033;-52
2021/01/24 06:15:29;;;;;;;4.40;1.67;;;;;;;;;;4993147;28;20034;-56
2021/01/24 06:17:56;;;;;;;5.28;1.50;;;;;;;;;;4992636;28;20139;-54
2021/01/24 06:20:23;;;;;;;11.70;2.20;;;;;;;;;;4992136;28;20034;-55
2021/01/24 06:22:56;;;;;;;9.02;2.45;;;;;;;;;;4992902;28;20046;-53
2021/01/24 06:25:27;;;;;;;6.10;2.07;;;;;;;;;;4992471;28;20033;-53
2021/01/24 06:28:13;;;;;;;15.98;2.28;;;;;;;;;;4993647;28;20046;-54
2021/01/24 06:30:39;;;;;;;4.75;1.80;;;;;;;;;;4968799;28;20061;-53
2021/01/24 06:33:18;;;;;;;6.00;1.95;;;;;;;;;;4969143;28;20071;-53
2021/01/24 06:35:45;;;;;;;6.40;2.35;;;;;;;;;;4956405;28;20066;-54
2021/01/24 06:38:11;;;;;;;8.68;1.80;;;;;;;;;;4956305;28;20043;-55
2021/01/24 06:40:43;;;;;;;6.75;2.08;;;;;;;;;;4970762;28;20046;-55
2021/01/24 06:43:09;;;;;;;3.42;1.15;;;;;;;;;;4970252;28;20113;-52
2021/01/24 06:45:36;;;;;;;7.05;2.30;;;;;;;;;;4970495;28;20150;-56
2021/01/24 06:48:02;;;;;;;9.02;2.53;;;;;;;;;;4972267;28;21976;-52
2021/01/24 06:50:40;;;;;;;7.05;2.30;;;;;;;;;;4969272;28;20064;-54
2021/01/24 06:53:10;;;;;;;7.90;1.92;;;;;;;;;;4968147;28;20058;-52
2021/01/24 06:55:37;;;;;;;5.18;1.60;;;;;;;;;;4969010;28;20057;-52
2021/01/24 06:58:21;;;;;;;8.15;2.80;;;;;;;;;;4969814;28;20046;-55
2021/01/24 07:00:47;;;;;;;5.18;1.67;;;;;;;;;;4968447;28;20072;-52
2021/01/24 07:03:17;;;;;;;6.97;2.50;;;;;;;;;;4973549;28;20527;-56
2021/01/24 07:05:43;;;;;;;4.93;1.90;;;;;;;;;;4973412;28;20097;-56
2021/01/24 07:08:28;;;;;;;8.77;2.80;;;;;;;;;;4973784;28;20544;-52
2021/01/24 07:10:54;;;;;;;6.85;1.77;;;;;;;;;;4969460;28;20634;-53
2021/01/24 07:13:25;;;;;;;4.38;1.77;;;;;;;;;;4971923;28;20121;-52
2021/01/24 07:16:09;;;;;;;4.28;1.92;;;;;;;;;;4973375;28;20038;-55
2021/01/24 07:18:42;;;;;;;4.03;1.67;;;;;;;;;;4973049;28;20520;-55
2021/01/24 07:21:09;;;;;;;7.05;1.83;;;;;;;;;;4972499;28;20042;-52
2021/01/24 07:23:35;;;;;;;16.25;5.45;;;;;;;;;;4973345;28;20038;-51
2021/01/24 07:26:01;;;;;;;10.73;3.03;;;;;;;;;;4974605;28;20366;-53
2021/01/24 07:28:27;;;;;;;8.05;3.22;;;;;;;;;;4972454;28;20097;-54
2021/01/24 07:31:00;;;;;;;4.78;2.08;;;;;;;;;;4974422;28;20093;-54
2021/01/24 07:33:27;;;;;;;21.50;4.33;;;;;;;;;;4972874;28;20061;-55
2021/01/24 07:35:55;;;;;;;7.07;2.22;;;;;;;;;;4988004;28;20108;-55
2021/01/24 07:38:21;;;;;;;6.63;2.17;;;;;;;;;;4992740;28;20079;-56
2021/01/24 07:40:51;;;;;;;11.38;2.20;;;;;;;;;;4994567;28;20041;-53
2021/01/24 07:43:16;;;;;;;7.07;2.22;;;;;;;;;;4993907;28;20049;-56
2021/01/24 07:45:44;;;;;;;7.03;2.40;;;;;;;;;;4993542;28;20038;-53
2021/01/24 07:48:10;;;;;;;6.05;2.30;;;;;;;;;;4992800;28;20491;-53
2021/01/24 07:50:37;;;;;;;7.07;2.65;;;;;;;;;;4993347;28;20056;-52
2021/01/24 07:53:04;;;;;;;16.80;3.03;;;;;;;;;;4993878;28;20081;-55
2021/01/24 07:55:29;;;;;;;8.52;2.58;;;;;;;;;;4993701;28;20058;-55
2021/01/24 07:57:55;;;;;;;12.40;3.03;;;;;;;;;;4994324;28;20046;-54
2021/01/24 08:00:22;;;;;;;5.50;2.80;;;;;;;;;;4993807;28;20042;-54
2021/01/24 08:02:48;;;;;;;11.82;4.15;;;;;;;;;;4993213;28;20095;-53
2021/01/24 08:05:14;;;;;;;7.75;3.03;;;;;;;;;;4994218;28;20041;-55
2021/01/24 08:07:40;;;;;;;9.50;3.35;;;;;;;;;;4992382;28;20795;-56
2021/01/24 08:10:06;;;;;;;10.85;3.63;;;;;;;;;;4994981;28;20632;-56
2021/01/24 08:12:32;;;;;;;11.50;3.50;;;;;;;;;;4996150;28;20140;-55
2021/01/24 08:14:58;;;;;;;11.55;3.97;;;;;;;;;;4993511;28;20188;-55
2021/01/24 08:17:25;;;;;;;11.52;3.55;;;;;;;;;;4996188;28;20112;-56
2021/01/24 08:19:51;;;;;;;27.70;3.85;;;;;;;;;;4978042;28;20047;-56
2021/01/24 08:22:17;;;;;;;10.30;3.40;;;;;;;;;;4993645;28;20085;-56
2021/01/24 08:24:44;;;;;;;10.23;3.60;;;;;;;;;;4992996;28;20160;-56
2021/01/24 08:27:10;;;;;;;9.05;3.95;;;;;;;;;;4995452;28;20049;-54
2021/01/24 08:29:37;;;;;;;9.00;3.40;;;;;;;;;;4993322;28;20115;-56
2021/01/24 08:32:04;;;;;;;13.32;4.47;;;;;;;;;;4991998;28;20644;-54
2021/01/24 08:34:31;;;;;;;11.60;3.38;;;;;;;;;;4995363;28;20714;-53
2021/01/24 08:36:57;;;;;;;7.95;3.08;;;;;;;;;;4994839;28;20051;-55
2021/01/24 08:39:24;;;;;;;16.58;4.03;;;;;;;;;;4992731;28;20042;-54
2021/01/24 08:41:51;;;;;;;6.90;3.22;;;;;;;;;;4991161;28;20037;-55
2021/01/24 08:44:17;;;;;;;7.68;2.38;;;;;;;;;;4995149;28;20042;-55
2021/01/24 08:46:44;;;;;;;7.55;2.75;;;;;;;;;;4991438;28;20089;-55
2021/01/24 08:49:11;;;;;;;10.35;3.08;;;;;;;;;;4992633;28;20047;-54
2021/01/24 08:51:50;;;;;;;28.83;3.10;;;;;;;;;;4993865;28;20665;-55
2021/01/24 08:54:17;;;;;;;8.48;2.80;;;;;;;;;;4994498;28;20133;-52
2021/01/24 08:56:43;;;;;;;15.25;4.30;;;;;;;;;;4994456;28;21018;-55
2021/01/24 08:59:35;;;;;;;10.88;3.10;;;;;;;;;;4994612;28;20127;-55
2021/01/24 09:02:01;;;;;;;12.10;3.08;;;;;;;;;;4988799;28;20112;-54
2021/01/24 09:04:28;;;;;;;9.60;3.60;;;;;;;;;;4993120;28;20046;-53
2021/01/24 09:07:00;;;;;;;10.05;3.58;;;;;;;;;;4993647;28;20149;-55
2021/01/24 09:09:26;;;;;;;10.93;3.72;;;;;;;;;;4991453;28;20879;-54
2021/01/24 09:11:52;;;;;;;7.47;3.13;;;;;;;;;;4995700;28;20038;-54
2021/01/24 09:14:18;;;;;;;8.50;2.42;;;;;;;;;;4991839;28;20049;-55
2021/01/24 09:16:44;;;;;;;10.50;2.95;;;;;;;;;;4994305;28;20030;-53
2021/01/24 09:19:10;;;;;;;7.30;3.20;;;;;;;;;;4994648;28;20276;-56
2021/01/24 09:21:36;;;;;;;13.07;2.97;;;;;;;;;;4996617;28;20062;-56
2021/01/24 09:24:02;;;;;;;9.95;3.38;;;;;;;;;;4996044;28;20064;-54
2021/01/24 09:26:28;;;;;;;7.78;2.53;;;;;;;;;;4994565;28;20511;-55
2021/01/24 09:28:53;;;;;;;8.77;3.53;;;;;;;;;;4996867;28;20058;-56
2021/01/24 09:31:19;;;;;;;9.63;3.22;;;;;;;;;;4996119;28;20045;-56
2021/01/24 09:33:45;;;;;;;5.85;2.65;;;;;;;;;;4997730;28;20042;-57
2021/01/24 09:36:11;;;;;;;8.20;2.92;;;;;;;;;;4978990;28;20148;-57
2021/01/24 09:38:37;;;;;;;6.68;2.95;;;;;;;;;;4994157;28;20160;-56
2021/01/24 09:41:02;;;;;;;16.17;3.95;;;;;;;;;;4994906;28;20105;-56
2021/01/24 09:43:28;;;;;;;5.70;2.53;;;;;;;;;;4996412;28;20034;-55
2021/01/24 09:45:54;;;;;;;10.82;3.00;;;;;;;;;;4994378;28;20470;-54
2021/01/24 09:48:20;;;;;;;7.43;3.30;;;;;;;;;;4995111;28;20052;-54
2021/01/24 09:50:46;;;;;;;7.43;3.08;;;;;;;;;;4969796;28;20038;-56
2021/01/24 09:53:12;;;;;;;10.55;4.53;;;;;;;;;;4995951;28;20129;-54
2021/01/24 09:55:38;;;;;;;10.52;3.47;;;;;;;;;;4994201;28;21595;-55
2021/01/24 09:58:04;;;;;;;9.93;3.15;;;;;;;;;;4996486;28;20046;-54
2021/01/24 10:00:30;;;;;;;8.18;2.78;;;;;;;;;;4993086;28;20049;-56
2021/01/24 10:02:56;;;;;;;8.48;3.22;;;;;;;;;;4996047;28;20049;-53
2021/01/24 10:05:22;;;;;;;11.00;3.13;;;;;;;;;;4995527;28;20056;-53
2021/01/24 10:07:47;;;;;;;11.07;3.47;;;;;;;;;;4979553;28;20122;-56
2021/01/24 10:10:13;;;;;;;14.35;3.85;;;;;;;;;;4993210;28;20046;-54
2021/01/24 10:12:39;;;;;;;8.18;3.35;;;;;;;;;;4993607;28;20045;-55
2021/01/24 10:15:05;;;;;;;23.08;3.65;;;;;;;;;;4994658;28;20035;-54
2021/01/24 10:17:31;;;;;;;11.45;3.08;;;;;;;;;;4994242;28;20101;-56
2021/01/24 10:19:57;;;;;;;15.85;3.72;;;;;;;;;;4993347;28;20083;-55
2021/01/24 10:22:23;;;;;;;10.98;3.03;;;;;;;;;;4993681;28;20053;-54
2021/01/24 10:24:49;;;;;;;18.52;3.20;;;;;;;;;;4980039;28;20125;-56
2021/01/24 10:27:15;;;;;;;12.73;4.90;;;;;;;;;;4996506;28;20085;-55
2021/01/24 10:29:41;;;;;;;11.55;3.70;;;;;;;;;;4994252;28;20046;-56
2021/01/24 10:32:07;;;;;;;19.98;3.72;;;;;;;;;;4993343;28;20039;-56
2021/01/24 10:34:32;;;;;;;9.88;3.05;;;;;;;;;;4993550;28;20139;-55
2021/01/24 10:36:58;;;;;;;13.98;4.05;;;;;;;;;;4993669;28;20120;-54
2021/01/24 10:39:24;;;;;;;15.52;3.95;;;;;;;;;;4991792;28;20061;-54
2021/01/24 10:41:50;;;;;;;11.52;3.63;;;;;;;;;;4994010;28;20046;-53
2021/01/24 10:44:16;;;;;;;15.95;4.07;;;;;;;;;;4992873;28;20049;-54
2021/01/24 10:46:42;;;;;;;14.13;4.45;;;;;;;;;;4992533;28;20065;-55
2021/01/24 10:49:10;;;;;;;11.73;3.63;;;;;;;;;;4991087;28;20046;-55
2021/01/24 10:51:36;;;;;;;18.02;3.15;;;;;;;;;;4992480;28;20049;-53
2021/01/24 10:54:02;;;;;;;15.65;3.28;;;;;;;;;;4992467;28;20046;-54
2021/01/24 10:56:28;;;;;;;12.23;3.53;;;;;;;;;;4994133;28;20099;-54
2021/01/24 10:58:54;;;;;;;11.32;3.60;;;;;;;;;;4974898;28;20403;-54
2021/01/24 11:01:20;;;;;;;16.00;4.13;;;;;;;;;;4991545;28;20125;-56
2021/01/24 11:03:46;;;;;;;18.40;4.32;;;;;;;;;;4995582;28;20072;-54
2021/01/24 11:06:11;;;;;;;10.82;3.72;;;;;;;;;;4993524;28;20039;-54
2021/01/24 11:08:37;;;;;;;9.90;3.30;;;;;;;;;;4991387;28;20053;-55
2021/01/24 11:11:03;;;;;;;8.70;3.05;;;;;;;;;;4991720;28;20046;-56
2021/01/24 11:13:29;;;;;;;12.50;3.83;;;;;;;;;;4992610;28;20077;-56
2021/01/24 11:15:55;;;;;;;14.52;3.33;;;;;;;;;;4991140;28;20050;-55
2021/01/24 11:18:21;;;;;;;10.93;3.20;;;;;;;;;;4990886;28;20068;-54
2021/01/24 11:20:47;;;;;;;12.57;3.55;;;;;;;;;;4992038;28;20042;-55
2021/01/24 11:23:13;;;;;;;9.90;3.78;;;;;;;;;;4992357;28;20063;-56
2021/01/24 11:25:39;;;;;;;13.90;4.53;;;;;;;;;;4991701;28;20043;-56
2021/01/24 11:28:08;;;;;;;12.18;3.97;;;;;;;;;;4992229;28;20081;-53
2021/01/24 11:30:34;;;;;;;12.27;3.38;;;;;;;;;;4991205;28;20103;-53
2021/01/24 11:32:59;;;;;;;10.18;3.75;;;;;;;;;;4992875;28;20041;-55
2021/01/24 11:35:25;;;;;;;11.13;3.95;;;;;;;;;;4991129;28;20127;-53
2021/01/24 11:37:51;;;;;;;8.52;3.42;;;;;;;;;;4992724;28;20047;-55
2021/01/24 11:40:17;;;;;;;15.88;3.42;;;;;;;;;;4991883;28;20128;-55
2021/01/24 11:42:43;;;;;;;11.02;3.22;;;;;;;;;;4992299;28;20061;-55
2021/01/24 11:45:09;;;;;;;10.75;3.78;;;;;;;;;;4994377;28;20069;-54
2021/01/24 11:47:36;;;;;;;10.77;3.88;;;;;;;;;;4992355;28;20038;-56
2021/01/24 11:50:03;;;;;;;12.52;3.55;;;;;;;;;;4991139;28;20132;-52
2021/01/24 11:52:28;;;;;;;8.05;2.90;;;;;;;;;;4992587;28;20046;-56
2021/01/24 11:54:54;;;;;;;12.27;4.15;;;;;;;;;;4991791;28;20592;-53
2021/01/24 11:57:20;;;;;;;10.77;4.30;;;;;;;;;;4989801;28;20049;-54
2021/01/24 11:59:46;;;;;;;11.55;3.30;;;;;;;;;;4991340;28;20042;-54
2021/01/24 12:02:12;;;;;;;8.25;2.95;;;;;;;;;;4993568;28;20379;-55
2021/01/24 12:04:38;;;;;;;12.32;3.75;;;;;;;;;;4991224;28;20057;-54
2021/01/24 12:07:04;;;;;;;8.30;3.97;;;;;;;;;;4991920;28;20158;-53
2021/01/24 12:09:30;;;;;;;8.57;4.03;;;;;;;;;;4974662;28;20519;-53
2021/01/24 12:11:56;;;;;;;7.78;3.63;;;;;;;;;;4993430;28;20041;-53
2021/01/24 12:14:22;;;;;;;11.98;3.13;;;;;;;;;;4991652;28;20459;-56
2021/01/24 12:16:47;;;;;;;8.50;2.47;;;;;;;;;;4991185;28;20034;-53
2021/01/24 12:19:13;;;;;;;9.02;3.97;;;;;;;;;;4992049;28;20049;-54
2021/01/24 12:21:39;;;;;;;8.00;3.38;;;;;;;;;;4991931;28;20081;-53
2021/01/24 12:24:07;;;;;;;10.45;4.07;;;;;;;;;;4992030;28;20049;-56
2021/01/24 12:26:33;;;;;;;16.13;3.85;;;;;;;;;;4990062;28;20062;-54
2021/01/24 12:28:59;;;;;;;6.80;3.13;;;;;;;;;;4977489;28;20054;-55
2021/01/24 12:31:24;;;;;;;9.25;3.38;;;;;;;;;;4992564;28;20120;-55
2021/01/24 12:33:50;;;;;;;11.95;4.20;;;;;;;;;;4991278;28;20042;-53
2021/01/24 12:36:16;;;;;;;8.25;3.17;;;;;;;;;;4973470;28;20057;-55
2021/01/24 12:38:42;;;;;;;8.20;3.25;;;;;;;;;;4991959;28;20054;-53
2021/01/24 12:41:08;;;;;;;10.25;3.95;;;;;;;;;;4992422;28;20047;-55
2021/01/24 12:43:34;;;;;;;11.60;3.55;;;;;;;;;;4992377;28;20053;-53
2021/01/24 12:46:01;;;;;;;11.88;4.38;;;;;;;;;;4991659;28;21893;-55
2021/01/24 12:48:27;;;;;;;10.90;4.13;;;;;;;;;;4993222;28;20058;-55
2021/01/24 12:50:53;;;;;;;12.10;4.93;;;;;;;;;;4993595;28;20494;-54
2021/01/24 12:53:19;;;;;;;13.57;4.10;;;;;;;;;;4990861;28;20046;-52
2021/01/24 12:55:45;;;;;;;11.05;4.95;;;;;;;;;;4994184;28;20049;-55
2021/01/24 12:58:11;;;;;;;12.52;4.22;;;;;;;;;;4995853;28;20493;-55
2021/01/24 13:00:37;;;;;;;19.02;4.03;;;;;;;;;;4993518;28;20096;-55
2021/01/24 13:03:02;;;;;;;11.75;4.22;;;;;;;;;;4994153;28;20410;-55
2021/01/24 13:05:28;;;;;;;20.88;4.35;;;;;;;;;;4994427;28;20058;-53
2021/01/24 13:07:54;;;;;;;12.57;4.22;;;;;;;;;;4977099;28;20038;-55
2021/01/24 13:10:20;;;;;;;13.93;4.38;;;;;;;;;;4994875;28;20791;-55
2021/01/24 13:12:46;;;;;;;11.40;3.67;;;;;;;;;;4996530;28;20080;-53
2021/01/24 13:15:12;;;;;;;11.25;4.05;;;;;;;;;;4995794;28;20482;-53
2021/01/24 13:17:38;;;;;;;9.07;4.00;;;;;;;;;;4992975;28;20055;-56
2021/01/24 13:20:04;;;;;;;10.90;4.00;;;;;;;;;;4995736;28;20065;-54
2021/01/24 13:22:30;;;;;;;8.35;3.65;;;;;;;;;;4994059;28;20048;-52
2021/01/24 13:24:56;;;;;;;12.75;4.75;;;;;;;;;;4995162;28;20041;-52
2021/01/24 13:27:22;;;;;;;11.75;3.67;;;;;;;;;;4995034;28;20045;-53
2021/01/24 13:29:47;;;;;;;12.85;3.90;;;;;;;;;;4995098;28;20446;-52
2021/01/24 13:32:13;;;;;;;10.40;3.28;;;;;;;;;;4997512;28;20042;-55
2021/01/24 13:34:39;;;;;;;9.70;3.22;;;;;;;;;;4992392;28;20054;-55
2021/01/24 13:37:05;;;;;;;11.15;3.28;;;;;;;;;;4992607;28;20906;-54
2021/01/24 13:39:31;;;;;;;12.15;3.50;;;;;;;;;;4995747;28;20506;-53
2021/01/24 13:41:57;;;;;;;8.32;3.75;;;;;;;;;;4997245;28;20133;-54
2021/01/24 13:44:22;;;;;;;12.13;4.35;;;;;;;;;;4994146;28;20534;-52
2021/01/24 13:46:48;;;;;;;9.90;4.05;;;;;;;;;;4992307;28;20057;-53
2021/01/24 13:49:14;;;;;;;11.65;3.25;;;;;;;;;;4994354;28;20054;-54
2021/01/24 13:51:40;;;;;;;11.05;2.85;;;;;;;;;;4994889;28;20881;-53
2021/01/24 13:54:06;;;;;;;11.40;4.25;;;;;;;;;;4994356;28;20038;-53
2021/01/24 13:56:32;;;;;;;9.98;3.40;;;;;;;;;;4992222;28;20054;-54
2021/01/24 13:58:58;;;;;;;18.33;4.05;;;;;;;;;;4994312;28;20100;-55
2021/01/24 14:01:23;;;;;;;14.38;4.47;;;;;;;;;;4991267;28;20038;-53
2021/01/24 14:03:49;;;;;;;10.50;3.72;;;;;;;;;;4993197;28;20540;-55
2021/01/24 14:06:15;;;;;;;16.10;3.88;;;;;;;;;;4991620;28;20038;-55
2021/01/24 14:08:41;;;;;;;12.30;4.05;;;;;;;;;;4994138;28;20064;-52
2021/01/24 14:11:07;;;;;;;16.98;4.38;;;;;;;;;;4993752;28;20479;-54
2021/01/24 14:13:33;;;;;;;15.40;5.03;;;;;;;;;;4993617;28;20403;-54
2021/01/24 14:15:58;;;;;;;12.40;4.43;;;;;;;;;;4993422;28;21987;-54
2021/01/24 14:18:24;;;;;;;14.25;4.80;;;;;;;;;;4993385;28;20546;-55
2021/01/24 14:20:50;;;;;;;11.90;4.03;;;;;;;;;;4994653;28;20038;-55
2021/01/24 14:23:16;;;;;;;19.00;5.30;;;;;;;;;;4993384;28;20038;-56
2021/01/24 14:25:42;;;;;;;17.23;5.28;;;;;;;;;;4993501;28;20039;-53
2021/01/24 14:28:08;;;;;;;16.30;4.03;;;;;;;;;;4994268;28;20037;-52
2021/01/24 14:30:34;;;;;;;12.73;4.82;;;;;;;;;;4992914;28;20081;-55
2021/01/24 14:33:00;;;;;;;13.63;4.20;;;;;;;;;;4993896;28;20141;-52
2021/01/24 14:35:25;;;;;;;11.38;4.35;;;;;;;;;;4992104;28;20062;-54